sensor_id;sensor_type;location;lat;lon;timestamp;P1;durP1;ratioP1;P2;durP2;ratioP2
9964;SDS011;5023;53.554;9.964;2022-12-17T00:03:38;58.10;;;36.90;;
9964;SDS011;5023;53.554;9.964;2022-12-17T00:08:59;59.43;;;39.47;;
9964;SDS011;5023;53.554;9.964;2022-12-17T00:14:19;54.07;;;38.20;;
9964;SDS011;5023;53.554;9.964;2022-12-17T00:19:38;58.33;;;38.50;;
9964;SDS011;5023;53.554;9.964;2022-12-17T00:24:59;64.63;;;41.20;;
9964;SDS011;5023;53.554;9.964;2022-12-17T00:30:18;63.60;;;42.57;;
9964;SDS011;5023;53.554;9.964;2022-12-17T00:35:38;65.73;;;43.20;;
9964;SDS011;5023;53.554;9.964;2022-12-17T00:40:59;58.03;;;39.27;;
9964;SDS011;5023;53.554;9.964;2022-12-17T00:46:18;55.07;;;37.57;;
9964;SDS011;5023;53.554;9.964;2022-12-17T00:51:39;59.67;;;39.70;;
9964;SDS011;5023;53.554;9.964;2022-12-17T00:56:59;61.90;;;40.30;;
9964;SDS011;5023;53.554;9.964;2022-12-17T01:02:19;61.97;;;42.37;;
9964;SDS011;5023;53.554;9.964;2022-12-17T01:07:42;66.73;;;40.47;;
9964;SDS011;5023;53.554;9.964;2022-12-17T01:13:03;56.93;;;40.17;;
9964;SDS011;5023;53.554;9.964;2022-12-17T01:18:23;53.90;;;38.23;;
9964;SDS011;5023;53.554;9.964;2022-12-17T01:23:42;57.90;;;39.87;;
9964;SDS011;5023;53.554;9.964;2022-12-17T01:29:05;55.97;;;38.87;;
9964;SDS011;5023;53.554;9.964;2022-12-17T01:34:24;60.33;;;40.53;;
9964;SDS011;5023;53.554;9.964;2022-12-17T01:39:44;59.90;;;39.30;;
9964;SDS011;5023;53.554;9.964;2022-12-17T01:45:07;67.37;;;44.37;;
9964;SDS011;5023;53.554;9.964;2022-12-17T01:50:30;56.07;;;38.67;;
9964;SDS011;5023;53.554;9.964;2022-12-17T01:55:53;56.93;;;39.03;;
9964;SDS011;5023;53.554;9.964;2022-12-17T02:01:14;51.40;;;37.50;;
9964;SDS011;5023;53.554;9.964;2022-12-17T02:06:33;61.30;;;40.40;;
9964;SDS011;5023;53.554;9.964;2022-12-17T02:11:58;62.40;;;40.17;;
9964;SDS011;5023;53.554;9.964;2022-12-17T02:17:28;67.17;;;40.53;;
9964;SDS011;5023;53.554;9.964;2022-12-17T02:23:03;56.80;;;36.67;;
9964;SDS011;5023;53.554;9.964;2022-12-17T02:28:33;57.77;;;39.10;;
9964;SDS011;5023;53.554;9.964;2022-12-17T02:33:54;62.60;;;39.53;;
9964;SDS011;5023;53.554;9.964;2022-12-17T02:39:14;60.70;;;39.23;;
9964;SDS011;5023;53.554;9.964;2022-12-17T02:44:35;55.87;;;37.27;;
9964;SDS011;5023;53.554;9.964;2022-12-17T02:49:57;53.00;;;36.30;;
9964;SDS011;5023;53.554;9.964;2022-12-17T02:55:17;60.33;;;37.50;;
9964;SDS011;5023;53.554;9.964;2022-12-17T03:00:38;52.93;;;35.63;;
9964;SDS011;5023;53.554;9.964;2022-12-17T03:06:10;52.77;;;36.80;;
9964;SDS011;5023;53.554;9.964;2022-12-17T03:11:30;48.47;;;34.70;;
9964;SDS011;5023;53.554;9.964;2022-12-17T03:16:51;52.07;;;34.87;;
9964;SDS011;5023;53.554;9.964;2022-12-17T03:22:10;52.73;;;36.60;;
9964;SDS011;5023;53.554;9.964;2022-12-17T03:27:29;46.93;;;33.33;;
9964;SDS011;5023;53.554;9.964;2022-12-17T03:32:51;49.30;;;33.23;;
9964;SDS011;5023;53.554;9.964;2022-12-17T03:38:10;51.03;;;33.53;;
9964;SDS011;5023;53.554;9.964;2022-12-17T03:43:30;48.70;;;33.60;;
9964;SDS011;5023;53.554;9.964;2022-12-17T03:48:51;52.17;;;37.27;;
9964;SDS011;5023;53.554;9.964;2022-12-17T03:54:11;54.80;;;35.97;;
9964;SDS011;5023;53.554;9.964;2022-12-17T03:59:31;54.33;;;34.63;;
9964;SDS011;5023;53.554;9.964;2022-12-17T04:04:51;55.20;;;36.83;;
9964;SDS011;5023;53.554;9.964;2022-12-17T04:10:11;49.57;;;35.00;;
9964;SDS011;5023;53.554;9.964;2022-12-17T04:15:30;52.03;;;33.07;;
9964;SDS011;5023;53.554;9.964;2022-12-17T04:20:53;54.87;;;36.10;;
9964;SDS011;5023;53.554;9.964;2022-12-17T04:26:13;51.73;;;34.57;;
9964;SDS011;5023;53.554;9.964;2022-12-17T04:31:36;49.80;;;33.90;;
9964;SDS011;5023;53.554;9.964;2022-12-17T04:36:56;47.33;;;32.77;;
9964;SDS011;5023;53.554;9.964;2022-12-17T04:42:38;47.17;;;30.70;;
9964;SDS011;5023;53.554;9.964;2022-12-17T04:48:00;47.90;;;34.43;;
9964;SDS011;5023;53.554;9.964;2022-12-17T04:53:22;58.07;;;34.97;;
9964;SDS011;5023;53.554;9.964;2022-12-17T04:58:42;47.40;;;33.20;;
9964;SDS011;5023;53.554;9.964;2022-12-17T05:04:01;56.50;;;35.23;;
9964;SDS011;5023;53.554;9.964;2022-12-17T05:09:22;56.57;;;35.30;;
9964;SDS011;5023;53.554;9.964;2022-12-17T05:14:42;53.13;;;35.40;;
9964;SDS011;5023;53.554;9.964;2022-12-17T05:20:02;54.33;;;32.17;;
9964;SDS011;5023;53.554;9.964;2022-12-17T05:25:23;53.83;;;34.03;;
9964;SDS011;5023;53.554;9.964;2022-12-17T05:30:42;48.60;;;34.20;;
9964;SDS011;5023;53.554;9.964;2022-12-17T05:36:09;55.00;;;35.90;;
9964;SDS011;5023;53.554;9.964;2022-12-17T05:41:30;46.63;;;33.27;;
9964;SDS011;5023;53.554;9.964;2022-12-17T05:46:50;47.10;;;32.37;;
9964;SDS011;5023;53.554;9.964;2022-12-17T05:52:09;42.93;;;30.33;;
9964;SDS011;5023;53.554;9.964;2022-12-17T05:57:30;43.40;;;30.47;;
9964;SDS011;5023;53.554;9.964;2022-12-17T06:02:55;47.10;;;31.00;;
9964;SDS011;5023;53.554;9.964;2022-12-17T06:08:15;43.20;;;29.07;;
9964;SDS011;5023;53.554;9.964;2022-12-17T06:19:50;38.43;;;27.73;;
9964;SDS011;5023;53.554;9.964;2022-12-17T06:25:40;41.23;;;28.77;;
9964;SDS011;5023;53.554;9.964;2022-12-17T06:31:00;43.77;;;28.10;;
9964;SDS011;5023;53.554;9.964;2022-12-17T06:36:21;38.93;;;27.27;;
9964;SDS011;5023;53.554;9.964;2022-12-17T06:41:41;41.00;;;27.10;;
9964;SDS011;5023;53.554;9.964;2022-12-17T06:47:00;42.60;;;28.17;;
9964;SDS011;5023;53.554;9.964;2022-12-17T06:52:21;43.90;;;28.00;;
9964;SDS011;5023;53.554;9.964;2022-12-17T06:57:41;43.00;;;28.47;;
9964;SDS011;5023;53.554;9.964;2022-12-17T07:03:02;38.23;;;25.93;;
9964;SDS011;5023;53.554;9.964;2022-12-17T07:08:23;36.87;;;25.57;;
9964;SDS011;5023;53.554;9.964;2022-12-17T07:13:43;37.63;;;25.40;;
9964;SDS011;5023;53.554;9.964;2022-12-17T07:18:59;38.20;;;25.03;;
9964;SDS011;5023;53.554;9.964;2022-12-17T07:24:20;41.47;;;24.77;;
9964;SDS011;5023;53.554;9.964;2022-12-17T07:29:40;34.30;;;22.90;;
9964;SDS011;5023;53.554;9.964;2022-12-17T07:34:59;31.93;;;22.37;;
9964;SDS011;5023;53.554;9.964;2022-12-17T07:40:21;32.97;;;22.93;;
9964;SDS011;5023;53.554;9.964;2022-12-17T07:46:08;32.50;;;22.93;;
9964;SDS011;5023;53.554;9.964;2022-12-17T07:51:27;32.93;;;22.67;;
9964;SDS011;5023;53.554;9.964;2022-12-17T07:56:48;32.70;;;23.13;;
9964;SDS011;5023;53.554;9.964;2022-12-17T08:02:08;34.87;;;23.67;;
9964;SDS011;5023;53.554;9.964;2022-12-17T08:07:27;31.03;;;22.20;;
9964;SDS011;5023;53.554;9.964;2022-12-17T08:12:54;33.40;;;22.97;;
9964;SDS011;5023;53.554;9.964;2022-12-17T08:18:47;34.47;;;23.03;;
9964;SDS011;5023;53.554;9.964;2022-12-17T08:24:07;35.53;;;24.20;;
9964;SDS011;5023;53.554;9.964;2022-12-17T08:29:28;41.43;;;25.87;;
9964;SDS011;5023;53.554;9.964;2022-12-17T08:34:48;34.33;;;24.73;;
9964;SDS011;5023;53.554;9.964;2022-12-17T08:40:08;33.70;;;23.87;;
9964;SDS011;5023;53.554;9.964;2022-12-17T08:45:30;36.53;;;25.93;;
9964;SDS011;5023;53.554;9.964;2022-12-17T08:51:42;35.43;;;24.57;;
9964;SDS011;5023;53.554;9.964;2022-12-17T08:57:11;35.93;;;25.33;;
9964;SDS011;5023;53.554;9.964;2022-12-17T09:02:32;36.80;;;23.10;;
9964;SDS011;5023;53.554;9.964;2022-12-17T09:07:56;48.23;;;24.97;;
9964;SDS011;5023;53.554;9.964;2022-12-17T09:13:17;53.53;;;22.50;;
9964;SDS011;5023;53.554;9.964;2022-12-17T09:18:38;47.40;;;21.70;;
9964;SDS011;5023;53.554;9.964;2022-12-17T09:23:58;31.23;;;21.13;;
9964;SDS011;5023;53.554;9.964;2022-12-17T09:29:18;29.03;;;21.30;;
9964;SDS011;5023;53.554;9.964;2022-12-17T09:34:39;30.63;;;21.47;;
9964;SDS011;5023;53.554;9.964;2022-12-17T09:39:58;28.73;;;21.53;;
9964;SDS011;5023;53.554;9.964;2022-12-17T09:45:19;34.53;;;22.47;;
9964;SDS011;5023;53.554;9.964;2022-12-17T09:50:47;30.43;;;21.90;;
9964;SDS011;5023;53.554;9.964;2022-12-17T09:56:26;34.20;;;26.57;;
9964;SDS011;5023;53.554;9.964;2022-12-17T10:01:47;30.50;;;22.77;;
9964;SDS011;5023;53.554;9.964;2022-12-17T10:07:10;27.87;;;22.37;;
9964;SDS011;5023;53.554;9.964;2022-12-17T10:12:32;31.10;;;22.73;;
9964;SDS011;5023;53.554;9.964;2022-12-17T10:17:52;29.00;;;22.07;;
9964;SDS011;5023;53.554;9.964;2022-12-17T10:23:22;27.37;;;21.10;;
9964;SDS011;5023;53.554;9.964;2022-12-17T10:28:45;31.20;;;22.90;;
9964;SDS011;5023;53.554;9.964;2022-12-17T10:34:05;30.70;;;21.23;;
9964;SDS011;5023;53.554;9.964;2022-12-17T10:39:28;32.77;;;22.70;;
9964;SDS011;5023;53.554;9.964;2022-12-17T10:44:48;26.80;;;19.90;;
9964;SDS011;5023;53.554;9.964;2022-12-17T10:50:08;32.60;;;21.67;;
9964;SDS011;5023;53.554;9.964;2022-12-17T10:55:52;23.07;;;18.67;;
9964;SDS011;5023;53.554;9.964;2022-12-17T11:01:17;30.57;;;18.93;;
9964;SDS011;5023;53.554;9.964;2022-12-17T11:06:39;20.63;;;15.80;;
9964;SDS011;5023;53.554;9.964;2022-12-17T11:12:03;20.90;;;15.93;;
9964;SDS011;5023;53.554;9.964;2022-12-17T11:18:04;21.60;;;16.00;;
9964;SDS011;5023;53.554;9.964;2022-12-17T11:23:28;20.57;;;15.50;;
9964;SDS011;5023;53.554;9.964;2022-12-17T11:29:38;23.03;;;15.17;;
9964;SDS011;5023;53.554;9.964;2022-12-17T11:35:38;20.77;;;13.90;;
9964;SDS011;5023;53.554;9.964;2022-12-17T11:41:47;24.63;;;17.20;;
9964;SDS011;5023;53.554;9.964;2022-12-17T11:47:53;19.13;;;14.37;;
9964;SDS011;5023;53.554;9.964;2022-12-17T11:54:10;17.27;;;13.37;;
9964;SDS011;5023;53.554;9.964;2022-12-17T11:59:39;17.87;;;13.77;;
9964;SDS011;5023;53.554;9.964;2022-12-17T12:05:13;22.30;;;13.53;;
9964;SDS011;5023;53.554;9.964;2022-12-17T12:11:00;17.77;;;11.90;;
9964;SDS011;5023;53.554;9.964;2022-12-17T12:16:31;19.37;;;12.70;;
9964;SDS011;5023;53.554;9.964;2022-12-17T12:21:58;17.63;;;13.30;;
9964;SDS011;5023;53.554;9.964;2022-12-17T12:28:03;17.73;;;12.97;;
9964;SDS011;5023;53.554;9.964;2022-12-17T12:33:58;18.70;;;12.37;;
9964;SDS011;5023;53.554;9.964;2022-12-17T12:39:55;15.47;;;11.93;;
9964;SDS011;5023;53.554;9.964;2022-12-17T12:46:13;15.87;;;11.43;;
9964;SDS011;5023;53.554;9.964;2022-12-17T13:18:14;20.80;;;14.27;;
9964;SDS011;5023;53.554;9.964;2022-12-17T13:24:40;15.70;;;11.97;;
9964;SDS011;5023;53.554;9.964;2022-12-17T13:30:39;15.17;;;11.40;;
9964;SDS011;5023;53.554;9.964;2022-12-17T13:55:06;22.20;;;13.80;;
9964;SDS011;5023;53.554;9.964;2022-12-17T14:07:21;17.87;;;13.77;;
9964;SDS011;5023;53.554;9.964;2022-12-17T14:19:13;23.73;;;16.97;;
9964;SDS011;5023;53.554;9.964;2022-12-17T14:25:13;18.90;;;14.07;;
9964;SDS011;5023;53.554;9.964;2022-12-17T14:31:30;20.07;;;14.20;;
9964;SDS011;5023;53.554;9.964;2022-12-17T14:37:12;19.93;;;14.50;;
9964;SDS011;5023;53.554;9.964;2022-12-17T14:43:07;20.73;;;15.00;;
9964;SDS011;5023;53.554;9.964;2022-12-17T14:49:14;23.13;;;16.33;;
9964;SDS011;5023;53.554;9.964;2022-12-17T15:01:38;24.03;;;17.57;;
9964;SDS011;5023;53.554;9.964;2022-12-17T15:07:20;22.93;;;17.00;;
9964;SDS011;5023;53.554;9.964;2022-12-17T15:13:09;25.93;;;18.47;;
9964;SDS011;5023;53.554;9.964;2022-12-17T15:19:09;19.77;;;14.60;;
9964;SDS011;5023;53.554;9.964;2022-12-17T15:25:28;23.20;;;17.37;;
9964;SDS011;5023;53.554;9.964;2022-12-17T15:31:27;23.77;;;16.00;;
9964;SDS011;5023;53.554;9.964;2022-12-17T15:36:54;20.27;;;14.70;;
9964;SDS011;5023;53.554;9.964;2022-12-17T15:42:58;18.53;;;12.37;;
9964;SDS011;5023;53.554;9.964;2022-12-17T15:48:44;18.90;;;12.63;;
9964;SDS011;5023;53.554;9.964;2022-12-17T15:53:48;20.00;;;11.83;;
9964;SDS011;5023;53.554;9.964;2022-12-17T15:59:46;23.17;;;15.43;;
9964;SDS011;5023;53.554;9.964;2022-12-17T16:05:20;19.63;;;14.47;;
9964;SDS011;5023;53.554;9.964;2022-12-17T16:10:59;32.90;;;19.10;;
9964;SDS011;5023;53.554;9.964;2022-12-17T16:16:38;27.77;;;16.87;;
9964;SDS011;5023;53.554;9.964;2022-12-17T16:21:40;22.83;;;15.90;;
9964;SDS011;5023;53.554;9.964;2022-12-17T16:27:17;24.93;;;19.20;;
9964;SDS011;5023;53.554;9.964;2022-12-17T16:33:35;22.93;;;15.60;;
9964;SDS011;5023;53.554;9.964;2022-12-17T16:39:15;19.13;;;12.63;;
9964;SDS011;5023;53.554;9.964;2022-12-17T16:44:53;22.90;;;15.23;;
9964;SDS011;5023;53.554;9.964;2022-12-17T16:50:28;23.87;;;16.87;;
9964;SDS011;5023;53.554;9.964;2022-12-17T16:56:28;36.27;;;24.37;;
9964;SDS011;5023;53.554;9.964;2022-12-17T17:02:07;28.30;;;20.10;;
9964;SDS011;5023;53.554;9.964;2022-12-17T17:08:23;21.93;;;16.03;;
9964;SDS011;5023;53.554;9.964;2022-12-17T17:14:02;23.20;;;14.93;;
9964;SDS011;5023;53.554;9.964;2022-12-17T17:20:03;26.17;;;16.83;;
9964;SDS011;5023;53.554;9.964;2022-12-17T17:26:08;24.53;;;16.63;;
9964;SDS011;5023;53.554;9.964;2022-12-17T17:31:44;20.83;;;16.07;;
9964;SDS011;5023;53.554;9.964;2022-12-17T17:42:31;21.27;;;14.70;;
9964;SDS011;5023;53.554;9.964;2022-12-17T17:48:05;23.33;;;16.87;;
9964;SDS011;5023;53.554;9.964;2022-12-17T17:53:43;21.63;;;15.87;;
9964;SDS011;5023;53.554;9.964;2022-12-17T17:59:20;21.00;;;14.47;;
9964;SDS011;5023;53.554;9.964;2022-12-17T18:05:01;24.27;;;15.53;;
9964;SDS011;5023;53.554;9.964;2022-12-17T18:10:36;29.93;;;21.13;;
9964;SDS011;5023;53.554;9.964;2022-12-17T18:16:37;28.70;;;17.33;;
9964;SDS011;5023;53.554;9.964;2022-12-17T18:22:36;22.13;;;15.00;;
9964;SDS011;5023;53.554;9.964;2022-12-17T18:34:48;23.10;;;16.90;;
9964;SDS011;5023;53.554;9.964;2022-12-17T18:45:04;24.80;;;16.60;;
9964;SDS011;5023;53.554;9.964;2022-12-17T18:50:41;30.33;;;19.50;;
9964;SDS011;5023;53.554;9.964;2022-12-17T18:56:16;27.50;;;19.57;;
9964;SDS011;5023;53.554;9.964;2022-12-17T19:01:58;25.30;;;18.97;;
9964;SDS011;5023;53.554;9.964;2022-12-17T19:07:34;25.70;;;18.23;;
9964;SDS011;5023;53.554;9.964;2022-12-17T19:13:33;32.13;;;21.00;;
9964;SDS011;5023;53.554;9.964;2022-12-17T19:19:09;25.37;;;18.23;;
9964;SDS011;5023;53.554;9.964;2022-12-17T19:25:11;22.27;;;15.40;;
9964;SDS011;5023;53.554;9.964;2022-12-17T19:31:05;24.50;;;16.87;;
9964;SDS011;5023;53.554;9.964;2022-12-17T19:47:06;30.13;;;18.87;;
9964;SDS011;5023;53.554;9.964;2022-12-17T19:52:59;28.53;;;19.23;;
9964;SDS011;5023;53.554;9.964;2022-12-17T19:59:04;29.73;;;19.93;;
9964;SDS011;5023;53.554;9.964;2022-12-17T20:04:46;25.63;;;19.33;;
9964;SDS011;5023;53.554;9.964;2022-12-17T20:10:44;27.17;;;19.97;;
9964;SDS011;5023;53.554;9.964;2022-12-17T20:16:25;28.33;;;19.73;;
9964;SDS011;5023;53.554;9.964;2022-12-17T20:22:03;32.37;;;20.83;;
9964;SDS011;5023;53.554;9.964;2022-12-17T20:28:29;32.97;;;22.90;;
9964;SDS011;5023;53.554;9.964;2022-12-17T20:34:27;29.30;;;20.57;;
9964;SDS011;5023;53.554;9.964;2022-12-17T20:45:47;38.33;;;23.07;;
9964;SDS011;5023;53.554;9.964;2022-12-17T20:51:26;78.07;;;48.07;;
9964;SDS011;5023;53.554;9.964;2022-12-17T20:57:01;34.20;;;23.40;;
9964;SDS011;5023;53.554;9.964;2022-12-17T21:15:06;27.90;;;18.80;;
9964;SDS011;5023;53.554;9.964;2022-12-17T21:21:05;32.23;;;20.27;;
9964;SDS011;5023;53.554;9.964;2022-12-17T21:26:41;25.03;;;18.30;;
9964;SDS011;5023;53.554;9.964;2022-12-17T21:32:19;27.50;;;18.00;;
9964;SDS011;5023;53.554;9.964;2022-12-17T22:14:32;34.97;;;21.70;;
9964;SDS011;5023;53.554;9.964;2022-12-17T22:20:16;28.93;;;17.57;;
9964;SDS011;5023;53.554;9.964;2022-12-17T22:26:11;22.53;;;17.20;;
9964;SDS011;5023;53.554;9.964;2022-12-17T22:31:52;30.40;;;20.77;;
9964;SDS011;5023;53.554;9.964;2022-12-17T22:37:46;23.03;;;16.00;;
9964;SDS011;5023;53.554;9.964;2022-12-17T22:43:44;25.83;;;18.20;;
9964;SDS011;5023;53.554;9.964;2022-12-17T22:48:48;24.47;;;18.40;;
9964;SDS011;5023;53.554;9.964;2022-12-17T22:54:53;21.80;;;14.90;;
9964;SDS011;5023;53.554;9.964;2022-12-17T23:00:33;20.27;;;14.17;;
9964;SDS011;5023;53.554;9.964;2022-12-17T23:06:34;21.40;;;14.13;;
9964;SDS011;5023;53.554;9.964;2022-12-17T23:12:23;20.87;;;14.50;;
9964;SDS011;5023;53.554;9.964;2022-12-17T23:18:06;22.00;;;14.50;;
9964;SDS011;5023;53.554;9.964;2022-12-17T23:29:21;25.80;;;17.63;;
9964;SDS011;5023;53.554;9.964;2022-12-17T23:35:19;23.00;;;15.60;;
9964;SDS011;5023;53.554;9.964;2022-12-17T23:40:41;24.37;;;15.87;;
9964;SDS011;5023;53.554;9.964;2022-12-17T23:46:26;21.40;;;13.97;;
9964;SDS011;5023;53.554;9.964;2022-12-17T23:52:01;21.17;;;14.70;;
9964;SDS011;5023;53.554;9.964;2022-12-17T23:57:39;19.90;;;14.77;;
